Time;durP1;ratioP1;P1;durP2;ratioP2;P2;SDS_P1;SDS_P2;PMS_P1;PMS_P2;Temp;Humidity;BMP_temperature;BMP_pressure;BME280_temperature;BME280_humidity;BME280_pressure;Samples;Min_cycle;Max_cycle;Signal;HPM_P1;HPM_P2
2021/04/23 00:00:31;;;;;;;13.07;5.13;;;;;;;;;;4976215;28;20363;-78
2021/04/23 00:02:58;;;;;;;15.80;5.20;;;;;;;;;;4976742;28;20571;-80
2021/04/23 00:05:23;;;;;;;17.52;5.80;;;;;;;;;;4976003;28;20066;-80
2021/04/23 00:07:49;;;;;;;10.70;5.25;;;;;;;;;;4976430;28;20121;-80
2021/04/23 00:10:15;;;;;;;14.73;5.13;;;;;;;;;;4975825;28;20495;-79
2021/04/23 00:12:41;;;;;;;15.68;5.25;;;;;;;;;;4976878;28;20026;-80
2021/04/23 00:15:11;;;;;;;12.40;5.53;;;;;;;;;;4976623;28;20104;-78
2021/04/23 00:17:38;;;;;;;11.13;4.88;;;;;;;;;;4976528;28;20051;-78
2021/04/23 00:20:09;;;;;;;14.00;5.50;;;;;;;;;;4975998;28;20030;-78
2021/04/23 00:22:35;;;;;;;15.32;5.22;;;;;;;;;;4980155;28;20463;-79
2021/04/23 00:25:02;;;;;;;21.98;5.65;;;;;;;;;;4975341;28;20033;-79
2021/04/23 00:27:29;;;;;;;14.25;5.30;;;;;;;;;;4974800;28;20388;-80
2021/04/23 00:29:55;;;;;;;10.57;5.50;;;;;;;;;;4975837;28;20121;-79
2021/04/23 00:35:04;;;;;;;11.65;4.95;;;;;;;;;;4956582;29;20038;-80
2021/04/23 00:37:29;;;;;;;13.48;5.38;;;;;;;;;;4956665;29;20019;-82
2021/04/23 00:39:54;;;;;;;;;;;;;;;;;;4978005;28;20026;-82
2021/04/23 00:42:19;;;;;;;14.85;5.22;;;;;;;;;;4980543;28;20001;-81
2021/04/23 00:44:45;;;;;;;12.23;5.70;;;;;;;;;;4975606;28;20093;-78
2021/04/23 00:47:11;;;;;;;;;;;;;;;;;;4974193;28;20026;-78
2021/04/23 00:49:38;;;;;;;15.77;5.82;;;;;;;;;;4975167;28;19941;-79
2021/04/23 00:52:04;;;;;;;12.15;5.40;;;;;;;;;;4975127;28;20348;-79
2021/04/23 00:54:32;;;;;;;15.93;5.78;;;;;;;;;;4975110;28;20072;-78
2021/04/23 00:56:57;;;;;;;14.50;5.57;;;;;;;;;;4974692;28;20021;-79
2021/04/23 00:59:25;;;;;;;15.18;5.90;;;;;;;;;;4975544;28;20102;-79
2021/04/23 01:01:53;;;;;;;15.43;5.53;;;;;;;;;;4974277;28;20037;-78
2021/04/23 01:04:19;;;;;;;13.60;5.65;;;;;;;;;;4973780;28;20015;-79
2021/04/23 01:06:44;;;;;;;16.90;6.22;;;;;;;;;;4975254;28;20027;-79
2021/04/23 01:09:14;;;;;;;14.82;5.85;;;;;;;;;;4975595;28;20034;-79
2021/04/23 01:11:39;;;;;;;14.60;5.97;;;;;;;;;;4957714;28;20114;-79
2021/04/23 01:14:07;;;;;;;13.05;5.57;;;;;;;;;;4974877;28;20165;-79
2021/04/23 01:16:33;;;;;;;15.20;5.68;;;;;;;;;;4971954;28;20081;-78
2021/04/23 01:18:58;;;;;;;10.90;5.75;;;;;;;;;;4956116;28;20094;-78
2021/04/23 01:21:25;;;;;;;13.95;5.95;;;;;;;;;;4955830;29;20045;-79
2021/04/23 01:23:52;;;;;;;15.57;5.60;;;;;;;;;;4958972;28;20090;-80
2021/04/23 01:26:18;;;;;;;13.15;5.72;;;;;;;;;;4955898;29;20055;-78
2021/04/23 01:28:44;;;;;;;11.32;5.97;;;;;;;;;;4954952;28;20090;-77
2021/04/23 01:31:11;;;;;;;11.95;6.32;;;;;;;;;;4938914;29;20348;-78
2021/04/23 01:33:38;;;;;;;11.40;5.80;;;;;;;;;;4938517;29;20086;-78
2021/04/23 01:36:04;;;;;;;14.63;5.97;;;;;;;;;;4955765;29;20035;-78
2021/04/23 01:38:32;;;;;;;16.10;6.10;;;;;;;;;;4954064;29;20392;-78
2021/04/23 01:40:58;;;;;;;15.57;6.47;;;;;;;;;;4954168;29;20102;-78
2021/04/23 01:43:23;;;;;;;14.70;6.40;;;;;;;;;;4955185;29;20094;-78
2021/04/23 01:45:48;;;;;;;12.40;6.50;;;;;;;;;;4955006;29;20047;-78
2021/04/23 01:48:14;;;;;;;11.65;5.85;;;;;;;;;;4954573;29;20363;-78
2021/04/23 01:50:40;;;;;;;16.55;6.45;;;;;;;;;;4959418;28;20034;-78
2021/04/23 01:53:05;;;;;;;13.25;5.72;;;;;;;;;;4941781;28;20039;-79
2021/04/23 01:55:33;;;;;;;13.20;5.78;;;;;;;;;;4935418;29;20027;-79
2021/04/23 01:57:58;;;;;;;13.52;6.40;;;;;;;;;;4952619;28;20090;-77
2021/04/23 02:00:25;;;;;;;12.77;6.07;;;;;;;;;;4955196;29;20027;-77
2021/04/23 02:02:52;;;;;;;15.88;6.80;;;;;;;;;;4953269;28;20030;-79
2021/04/23 02:05:17;;;;;;;12.05;6.57;;;;;;;;;;4954273;29;20349;-79
2021/04/23 02:07:42;;;;;;;12.80;6.22;;;;;;;;;;4954998;29;20027;-79
2021/04/23 02:10:09;;;;;;;15.60;6.47;;;;;;;;;;4954332;29;20061;-79
2021/04/23 02:12:35;;;;;;;13.90;6.88;;;;;;;;;;4954940;29;20015;-81
2021/04/23 02:15:02;;;;;;;19.70;6.78;;;;;;;;;;4955524;29;20452;-81
2021/04/23 02:17:28;;;;;;;15.60;6.55;;;;;;;;;;4964397;28;20069;-80
2021/04/23 02:19:54;;;;;;;16.75;6.97;;;;;;;;;;4979212;28;20022;-80
2021/04/23 02:22:19;;;;;;;15.80;6.88;;;;;;;;;;4980777;28;20478;-80
2021/04/23 02:24:44;;;;;;;15.52;7.28;;;;;;;;;;4977855;28;20022;-80
2021/04/23 02:27:10;;;;;;;13.45;6.53;;;;;;;;;;4978473;28;20033;-79
2021/04/23 02:29:37;;;;;;;13.07;6.60;;;;;;;;;;4979261;28;20118;-79
2021/04/23 02:32:03;;;;;;;16.27;7.50;;;;;;;;;;4997391;28;20038;-79
2021/04/23 02:34:31;;;;;;;12.63;6.95;;;;;;;;;;4983360;28;20463;-80
2021/04/23 02:36:56;;;;;;;16.45;7.15;;;;;;;;;;4996421;28;20054;-78
2021/04/23 02:39:22;;;;;;;15.07;7.57;;;;;;;;;;4993527;28;20015;-78
2021/04/23 02:41:51;;;;;;;13.18;7.30;;;;;;;;;;4977929;28;20348;-80
2021/04/23 02:44:17;;;;;;;15.82;7.55;;;;;;;;;;4977718;28;20019;-80
2021/04/23 02:46:45;;;;;;;15.88;7.70;;;;;;;;;;4978182;28;20042;-81
2021/04/23 02:49:10;;;;;;;13.23;6.97;;;;;;;;;;4977536;28;20023;-80
2021/04/23 02:51:38;;;;;;;13.15;7.38;;;;;;;;;;4979259;28;20026;-80
2021/04/23 02:54:03;;;;;;;13.00;7.28;;;;;;;;;;4978011;28;20018;-79
2021/04/23 02:56:29;;;;;;;14.77;7.63;;;;;;;;;;4977810;28;20432;-79
2021/04/23 02:58:54;;;;;;;17.58;7.97;;;;;;;;;;4944276;28;20026;-79
2021/04/23 03:01:24;;;;;;;16.67;8.27;;;;;;;;;;4977180;28;20054;-79
2021/04/23 03:03:50;;;;;;;17.30;7.65;;;;;;;;;;4976499;28;20024;-78
2021/04/23 03:06:17;;;;;;;18.48;8.30;;;;;;;;;;4977303;28;20033;-78
2021/04/23 03:08:43;;;;;;;15.63;7.82;;;;;;;;;;4977732;28;20023;-78
2021/04/23 03:11:11;;;;;;;17.25;8.40;;;;;;;;;;4977505;28;20027;-78
2021/04/23 03:13:39;;;;;;;20.48;8.73;;;;;;;;;;4977518;28;20022;-78
2021/04/23 03:16:05;;;;;;;17.60;8.18;;;;;;;;;;4960603;28;20061;-78
2021/04/23 03:18:30;;;;;;;16.20;8.82;;;;;;;;;;4975977;28;20078;-79
2021/04/23 03:20:57;;;;;;;15.02;8.15;;;;;;;;;;4977239;28;20015;-79
2021/04/23 03:23:22;;;;;;;13.38;8.10;;;;;;;;;;4977107;28;20045;-80
2021/04/23 03:25:48;;;;;;;18.13;8.43;;;;;;;;;;4977468;28;20105;-80
2021/04/23 03:28:16;;;;;;;14.70;8.18;;;;;;;;;;4976758;28;20026;-79
2021/04/23 03:30:42;;;;;;;18.75;8.85;;;;;;;;;;4975943;28;20564;-79
2021/04/23 03:33:08;;;;;;;14.50;8.68;;;;;;;;;;4976648;28;20035;-79
2021/04/23 03:35:35;;;;;;;16.80;8.57;;;;;;;;;;4977287;28;20031;-79
2021/04/23 03:38:01;;;;;;;14.70;8.82;;;;;;;;;;4977013;28;20447;-79
2021/04/23 03:40:29;;;;;;;15.80;8.48;;;;;;;;;;4986502;28;20027;-79
2021/04/23 03:42:57;;;;;;;13.35;8.40;;;;;;;;;;4996643;28;20019;-78
2021/04/23 03:45:24;;;;;;;22.17;8.65;;;;;;;;;;4996452;28;20031;-79
2021/04/23 03:47:52;;;;;;;13.93;8.10;;;;;;;;;;4995529;28;20335;-80
2021/04/23 03:50:20;;;;;;;11.75;8.45;;;;;;;;;;4981694;28;20019;-79
2021/04/23 03:52:47;;;;;;;15.75;8.45;;;;;;;;;;4975704;28;20042;-80
2021/04/23 03:55:17;;;;;;;16.52;9.18;;;;;;;;;;4977511;28;20462;-80
2021/04/23 03:57:42;;;;;;;17.35;8.93;;;;;;;;;;4981264;28;20042;-80
2021/04/23 04:00:11;;;;;;;15.93;8.40;;;;;;;;;;4976373;28;20027;-79
2021/04/23 04:02:37;;;;;;;17.02;9.20;;;;;;;;;;4980405;28;20031;-79
2021/04/23 04:05:05;;;;;;;17.00;8.55;;;;;;;;;;4990924;28;20025;-79
2021/04/23 04:07:33;;;;;;;13.13;8.57;;;;;;;;;;4986833;28;20467;-79
2021/04/23 04:10:00;;;;;;;16.13;9.13;;;;;;;;;;4986019;28;20026;-78
2021/04/23 04:12:26;;;;;;;19.15;9.10;;;;;;;;;;4980296;28;20086;-78
2021/04/23 04:14:51;;;;;;;17.33;9.20;;;;;;;;;;4975259;28;20026;-78
2021/04/23 04:17:16;;;;;;;15.45;8.70;;;;;;;;;;4950366;28;20043;-78
2021/04/23 04:19:41;;;;;;;19.05;8.73;;;;;;;;;;4956829;29;20031;-80
2021/04/23 04:22:07;;;;;;;15.93;8.88;;;;;;;;;;4967519;28;20058;-80
2021/04/23 04:24:32;;;;;;;17.25;9.52;;;;;;;;;;4959622;28;20054;-81
2021/04/23 04:27:00;;;;;;;19.92;9.65;;;;;;;;;;4963680;28;20440;-80
2021/04/23 04:29:25;;;;;;;13.75;8.75;;;;;;;;;;4967683;28;20022;-80
2021/04/23 04:31:52;;;;;;;16.35;9.55;;;;;;;;;;4967508;28;20038;-80
2021/04/23 04:34:18;;;;;;;16.73;9.52;;;;;;;;;;4972068;28;20080;-80
2021/04/23 04:36:43;;;;;;;17.55;9.10;;;;;;;;;;4976076;28;20031;-80
2021/04/23 04:39:09;;;;;;;13.82;9.80;;;;;;;;;;4970720;28;20031;-79
2021/04/23 04:41:34;;;;;;;20.65;10.50;;;;;;;;;;4956540;28;20019;-79
2021/04/23 04:44:00;;;;;;;15.60;8.90;;;;;;;;;;4956356;28;20030;-80
2021/04/23 04:46:25;;;;;;;15.70;9.70;;;;;;;;;;4964186;28;20023;-80
2021/04/23 04:48:53;;;;;;;18.30;8.82;;;;;;;;;;4955330;28;20064;-79
2021/04/23 04:51:18;;;;;;;14.77;10.35;;;;;;;;;;4955881;28;20079;-80
2021/04/23 04:53:44;;;;;;;19.08;9.07;;;;;;;;;;4956271;29;20047;-77
2021/04/23 04:56:11;;;;;;;17.33;9.02;;;;;;;;;;4961077;28;20330;-76
2021/04/23 04:58:41;;;;;;;21.23;10.35;;;;;;;;;;4955211;29;20019;-75
2021/04/23 05:01:08;;;;;;;17.05;9.40;;;;;;;;;;4956429;29;20043;-74
2021/04/23 05:03:33;;;;;;;19.55;10.80;;;;;;;;;;4956084;28;20015;-75
2021/04/23 05:05:58;;;;;;;20.98;9.50;;;;;;;;;;4954174;28;20020;-75
2021/04/23 05:08:24;;;;;;;15.93;10.18;;;;;;;;;;4955469;28;20042;-75
2021/04/23 05:10:49;;;;;;;16.17;9.88;;;;;;;;;;4965666;28;20022;-75
2021/04/23 05:13:17;;;;;;;18.02;10.02;;;;;;;;;;4963417;28;20097;-74
2021/04/23 05:15:42;;;;;;;23.63;10.48;;;;;;;;;;4965864;28;20023;-74
2021/04/23 05:18:11;;;;;;;14.40;9.43;;;;;;;;;;4977699;28;20042;-74
2021/04/23 05:20:36;;;;;;;18.77;9.88;;;;;;;;;;4974919;28;20027;-74
2021/04/23 05:23:02;;;;;;;16.85;10.07;;;;;;;;;;4974334;28;20042;-74
2021/04/23 05:25:27;;;;;;;15.48;10.00;;;;;;;;;;4973672;28;20015;-74
2021/04/23 05:27:54;;;;;;;19.30;10.40;;;;;;;;;;4974600;28;20482;-74
2021/04/23 05:30:21;;;;;;;15.10;9.98;;;;;;;;;;4975002;28;20031;-75
2021/04/23 05:32:51;;;;;;;17.77;9.77;;;;;;;;;;4974547;28;20026;-75
2021/04/23 05:35:17;;;;;;;19.00;10.32;;;;;;;;;;4972333;28;20037;-75
2021/04/23 05:37:45;;;;;;;18.73;10.02;;;;;;;;;;4976793;28;20058;-75
2021/04/23 05:40:13;;;;;;;18.20;10.63;;;;;;;;;;4981857;28;20356;-75
2021/04/23 05:42:38;;;;;;;16.02;10.38;;;;;;;;;;4983799;28;20444;-74
2021/04/23 05:45:04;;;;;;;22.60;10.48;;;;;;;;;;4982369;28;20041;-74
2021/04/23 05:47:30;;;;;;;18.30;10.95;;;;;;;;;;4980799;28;20026;-75
2021/04/23 05:49:55;;;;;;;28.42;14.38;;;;;;;;;;4960656;28;20135;-74
2021/04/23 05:52:22;;;;;;;21.92;12.20;;;;;;;;;;4966241;28;20055;-76
2021/04/23 05:54:48;;;;;;;20.40;11.45;;;;;;;;;;4972945;28;20477;-76
2021/04/23 05:57:13;;;;;;;16.33;11.15;;;;;;;;;;4973904;28;20054;-76
2021/04/23 05:59:38;;;;;;;18.27;10.82;;;;;;;;;;4972343;28;20081;-75
2021/04/23 06:02:06;;;;;;;18.38;12.10;;;;;;;;;;4972494;28;20011;-74
2021/04/23 06:04:33;;;;;;;17.05;11.60;;;;;;;;;;4973361;28;20023;-75
2021/04/23 06:06:58;;;;;;;16.23;11.05;;;;;;;;;;4974120;28;20022;-76
2021/04/23 06:09:26;;;;;;;19.75;11.38;;;;;;;;;;4973262;28;20046;-76
2021/04/23 06:11:51;;;;;;;21.30;12.13;;;;;;;;;;4974323;28;20037;-77
2021/04/23 06:14:17;;;;;;;18.50;11.73;;;;;;;;;;4973765;28;20045;-76
2021/04/23 06:16:42;;;;;;;20.77;11.73;;;;;;;;;;4973939;28;20062;-76
2021/04/23 06:19:09;;;;;;;20.50;11.52;;;;;;;;;;4973329;28;20082;-76
2021/04/23 06:21:35;;;;;;;18.75;10.75;;;;;;;;;;4973986;28;20027;-76
2021/04/23 06:24:01;;;;;;;18.35;10.70;;;;;;;;;;4974249;28;20015;-75
2021/04/23 06:26:26;;;;;;;;;;;;;;;;;;4974474;28;20023;-75
2021/04/23 06:28:51;;;;;;;23.60;11.13;;;;;;;;;;4974385;28;19917;-74
2021/04/23 06:31:17;;;;;;;28.38;11.75;;;;;;;;;;4970879;28;20019;-75
2021/04/23 06:33:51;;;;;;;20.70;11.70;;;;;;;;;;4978712;28;20129;-76
2021/04/23 06:36:16;;;;;;;20.83;11.27;;;;;;;;;;4976192;28;20026;-76
2021/04/23 06:38:42;;;;;;;19.20;11.00;;;;;;;;;;4976038;28;20076;-75
2021/04/23 06:41:08;;;;;;;19.15;10.45;;;;;;;;;;4968818;28;20023;-76
2021/04/23 06:43:35;;;;;;;18.30;10.60;;;;;;;;;;4978036;28;20178;-75
2021/04/23 06:46:01;;;;;;;21.02;11.52;;;;;;;;;;4967858;28;20019;-75
2021/04/23 06:48:26;;;;;;;15.15;10.02;;;;;;;;;;4974620;28;20540;-75
2021/04/23 06:50:51;;;;;;;;;;;;;;;;;;4973583;28;20031;-76
2021/04/23 06:53:19;;;;;;;25.15;11.63;;;;;;;;;;4972071;28;19916;-76
2021/04/23 06:55:45;;;;;;;17.75;10.98;;;;;;;;;;4973385;28;20105;-75
2021/04/23 06:58:11;;;;;;;18.92;11.38;;;;;;;;;;4973241;28;20073;-76
2021/04/23 07:00:39;;;;;;;21.05;11.70;;;;;;;;;;4977562;28;20054;-76
2021/04/23 07:03:07;;;;;;;19.52;11.80;;;;;;;;;;4973669;28;20025;-76
2021/04/23 07:05:32;;;;;;;20.70;11.73;;;;;;;;;;4973935;28;20019;-75
2021/04/23 07:07:57;;;;;;;19.80;11.73;;;;;;;;;;4977443;28;20042;-75
2021/04/23 07:10:27;;;;;;;21.95;12.02;;;;;;;;;;4976635;28;20023;-75
2021/04/23 07:12:55;;;;;;;20.40;10.45;;;;;;;;;;4976237;28;20047;-76
2021/04/23 07:15:23;;;;;;;23.05;11.38;;;;;;;;;;4977613;28;20042;-76
2021/04/23 07:17:49;;;;;;;21.20;11.65;;;;;;;;;;4964093;28;20059;-76
2021/04/23 07:20:15;;;;;;;18.58;10.73;;;;;;;;;;4956028;28;20345;-76
2021/04/23 07:22:40;;;;;;;22.50;11.38;;;;;;;;;;4955957;29;20038;-75
2021/04/23 07:25:06;;;;;;;17.13;10.82;;;;;;;;;;4956599;28;20619;-75
2021/04/23 07:27:37;;;;;;;18.95;11.25;;;;;;;;;;4956700;29;20023;-75
2021/04/23 07:30:07;;;;;;;21.83;10.45;;;;;;;;;;4957611;29;20094;-75
2021/04/23 07:32:33;;;;;;;16.63;9.45;;;;;;;;;;4959215;28;20038;-75
2021/04/23 07:35:00;;;;;;;18.88;9.40;;;;;;;;;;4960882;28;20106;-75
2021/04/23 07:37:25;;;;;;;20.30;9.32;;;;;;;;;;4956190;29;20115;-75
2021/04/23 07:39:51;;;;;;;23.02;9.85;;;;;;;;;;4956734;28;20109;-75
2021/04/23 07:42:16;;;;;;;20.23;10.10;;;;;;;;;;4957435;29;20106;-75
2021/04/23 07:44:41;;;;;;;16.50;10.35;;;;;;;;;;4956438;28;20066;-75
2021/04/23 07:47:07;;;;;;;19.60;9.95;;;;;;;;;;4957209;29;20101;-75
2021/04/23 07:49:32;;;;;;;22.20;9.45;;;;;;;;;;4955859;29;20038;-75
2021/04/23 07:51:57;;;;;;;13.30;8.50;;;;;;;;;;4950997;29;20060;-75
2021/04/23 07:54:25;;;;;;;15.73;9.07;;;;;;;;;;4963777;28;20487;-75
2021/04/23 07:56:52;;;;;;;15.55;9.25;;;;;;;;;;4955765;29;20036;-73
2021/04/23 07:59:18;;;;;;;21.35;9.70;;;;;;;;;;4956756;29;20078;-73
2021/04/23 08:01:45;;;;;;;14.65;9.25;;;;;;;;;;4957573;28;20488;-73
2021/04/23 08:04:10;;;;;;;15.65;9.02;;;;;;;;;;4956671;29;20019;-73
2021/04/23 08:06:36;;;;;;;20.80;10.05;;;;;;;;;;4957000;29;20038;-73
2021/04/23 08:09:01;;;;;;;12.45;8.75;;;;;;;;;;4956244;29;20019;-74
2021/04/23 08:11:29;;;;;;;17.48;9.30;;;;;;;;;;4956978;29;20166;-74
2021/04/23 08:13:54;;;;;;;17.73;8.45;;;;;;;;;;4956623;29;20038;-74
2021/04/23 08:16:20;;;;;;;18.15;10.40;;;;;;;;;;4956335;28;20016;-74
2021/04/23 08:18:51;;;;;;;19.92;9.77;;;;;;;;;;4956273;28;20042;-74
2021/04/23 08:21:19;;;;;;;25.40;9.05;;;;;;;;;;4956048;28;20015;-74
2021/04/23 08:23:47;;;;;;;18.00;9.52;;;;;;;;;;4955850;29;20039;-73
2021/04/23 08:26:13;;;;;;;17.85;8.88;;;;;;;;;;4956343;29;20452;-73
2021/04/23 08:28:40;;;;;;;19.15;9.38;;;;;;;;;;4956104;28;20045;-73
2021/04/23 08:31:06;;;;;;;16.67;9.65;;;;;;;;;;4956099;29;20027;-74
2021/04/23 08:33:31;;;;;;;18.77;9.75;;;;;;;;;;4938694;29;20031;-73
2021/04/23 08:35:56;;;;;;;16.65;9.55;;;;;;;;;;4954892;28;20469;-75
2021/04/23 08:38:24;;;;;;;17.88;9.82;;;;;;;;;;4955177;29;20534;-75
2021/04/23 08:40:50;;;;;;;18.92;10.50;;;;;;;;;;4955815;29;20035;-75
2021/04/23 08:43:15;;;;;;;22.77;10.15;;;;;;;;;;4956407;29;20042;-75
2021/04/23 08:45:40;;;;;;;19.10;10.00;;;;;;;;;;4955666;29;20221;-75
2021/04/23 08:48:05;;;;;;;18.45;9.77;;;;;;;;;;4955826;29;20019;-75
2021/04/23 08:50:31;;;;;;;22.25;10.05;;;;;;;;;;4954385;28;20039;-75
2021/04/23 08:52:56;;;;;;;14.10;8.43;;;;;;;;;;4959348;28;20034;-76
2021/04/23 08:55:23;;;;;;;14.82;8.80;;;;;;;;;;4955155;28;20039;-75
2021/04/23 08:57:49;;;;;;;15.57;8.75;;;;;;;;;;4954260;28;20448;-75
2021/04/23 09:00:16;;;;;;;17.50;9.02;;;;;;;;;;4954447;28;20089;-74
2021/04/23 09:02:41;;;;;;;15.10;9.48;;;;;;;;;;4943635;28;20018;-75
2021/04/23 09:05:07;;;;;;;16.70;10.13;;;;;;;;;;4954810;29;20479;-76
2021/04/23 09:07:37;;;;;;;19.23;9.65;;;;;;;;;;4955870;28;20098;-77
2021/04/23 09:10:12;;;;;;;19.15;8.90;;;;;;;;;;4957978;28;20027;-75
2021/04/23 09:12:39;;;;;;;15.90;8.75;;;;;;;;;;4955660;29;20035;-77
2021/04/23 09:15:06;;;;;;;21.40;7.90;;;;;;;;;;4955343;29;20106;-77
2021/04/23 09:17:31;;;;;;;14.65;7.68;;;;;;;;;;4955639;28;20069;-76
2021/04/23 09:19:57;;;;;;;14.43;7.80;;;;;;;;;;4955767;29;20432;-76
2021/04/23 09:22:24;;;;;;;16.38;7.95;;;;;;;;;;4954648;29;20118;-77
2021/04/23 09:24:54;;;;;;;16.63;7.25;;;;;;;;;;4954291;28;20023;-76
2021/04/23 09:27:21;;;;;;;13.93;7.60;;;;;;;;;;4954833;29;20039;-76
2021/04/23 09:29:47;;;;;;;20.42;8.23;;;;;;;;;;4954471;28;20066;-77
2021/04/23 09:32:13;;;;;;;10.75;7.20;;;;;;;;;;4954590;28;20031;-77
2021/04/23 09:34:55;;;;;;;17.85;8.52;;;;;;;;;;4942262;29;20540;-74
2021/04/23 09:37:23;;;;;;;16.52;8.43;;;;;;;;;;4954762;29;20027;-74
2021/04/23 09:39:50;;;;;;;23.17;8.27;;;;;;;;;;4954756;28;20045;-75
2021/04/23 09:42:18;;;;;;;13.90;7.82;;;;;;;;;;4938874;29;20363;-75
2021/04/23 09:44:44;;;;;;;15.93;7.80;;;;;;;;;;4953849;29;20023;-76
2021/04/23 09:47:13;;;;;;;13.50;8.00;;;;;;;;;;4942166;28;20086;-76
2021/04/23 09:49:39;;;;;;;13.15;8.35;;;;;;;;;;4954346;29;20030;-75
2021/04/23 09:52:08;;;;;;;14.82;8.60;;;;;;;;;;4952045;28;20015;-75
2021/04/23 09:54:34;;;;;;;15.55;8.15;;;;;;;;;;4953113;28;20063;-76
2021/04/23 09:56:59;;;;;;;13.73;7.85;;;;;;;;;;4954658;29;20023;-76
2021/04/23 09:59:26;;;;;;;15.57;8.60;;;;;;;;;;4954342;28;20097;-76
2021/04/23 10:01:52;;;;;;;14.75;8.52;;;;;;;;;;4954104;28;20051;-76
2021/04/23 10:04:22;;;;;;;19.27;8.82;;;;;;;;;;4953546;28;20016;-76
2021/04/23 10:06:47;;;;;;;14.52;7.80;;;;;;;;;;4954698;29;20043;-76
2021/04/23 10:09:15;;;;;;;13.98;7.80;;;;;;;;;;4954742;28;20027;-76
2021/04/23 10:11:41;;;;;;;10.43;6.72;;;;;;;;;;4937691;29;20035;-75
2021/04/23 10:14:13;;;;;;;14.68;7.72;;;;;;;;;;4955252;29;20062;-75
2021/04/23 10:16:38;;;;;;;13.90;7.20;;;;;;;;;;4957253;28;20027;-75
2021/04/23 10:19:04;;;;;;;10.30;7.50;;;;;;;;;;4973326;28;20459;-75
2021/04/23 10:21:30;;;;;;;14.63;7.55;;;;;;;;;;4979118;28;20018;-75
2021/04/23 10:23:55;;;;;;;12.65;7.93;;;;;;;;;;4971210;28;20042;-75
2021/04/23 10:26:23;;;;;;;12.43;7.65;;;;;;;;;;4973421;28;20022;-75
2021/04/23 10:28:48;;;;;;;12.65;6.63;;;;;;;;;;4974079;28;20031;-74
2021/04/23 10:31:14;;;;;;;11.30;7.05;;;;;;;;;;4972458;28;20027;-75
2021/04/23 10:33:39;;;;;;;11.32;7.68;;;;;;;;;;4972140;28;20026;-75
2021/04/23 10:36:04;;;;;;;14.57;7.50;;;;;;;;;;4972272;28;20019;-75
2021/04/23 10:38:38;;;;;;;9.90;5.65;;;;;;;;;;4973977;28;20337;-75
2021/04/23 10:41:05;;;;;;;11.15;6.50;;;;;;;;;;4982423;28;20037;-78
2021/04/23 10:43:31;;;;;;;10.30;5.90;;;;;;;;;;4977962;28;20027;-76
2021/04/23 10:46:05;;;;;;;8.30;5.18;;;;;;;;;;4977557;28;20027;-75
2021/04/23 10:48:34;;;;;;;9.13;5.45;;;;;;;;;;4976799;28;20102;-75
2021/04/23 10:51:06;;;;;;;11.10;5.20;;;;;;;;;;4971539;28;20019;-76
2021/04/23 10:53:32;;;;;;;10.80;5.32;;;;;;;;;;4977153;28;20042;-76
2021/04/23 10:55:59;;;;;;;8.13;4.50;;;;;;;;;;4976173;28;20023;-77
2021/04/23 10:58:24;;;;;;;8.70;4.63;;;;;;;;;;4968594;28;20559;-78
2021/04/23 11:00:50;;;;;;;8.13;3.97;;;;;;;;;;4977319;28;20053;-76
2021/04/23 11:03:21;;;;;;;10.00;4.80;;;;;;;;;;4977115;28;20024;-76
2021/04/23 11:05:47;;;;;;;9.32;4.13;;;;;;;;;;4977167;28;20089;-76
2021/04/23 11:08:13;;;;;;;10.13;5.00;;;;;;;;;;4976377;28;20034;-77
2021/04/23 11:10:56;;;;;;;10.02;4.10;;;;;;;;;;4977810;28;20030;-77
2021/04/23 11:13:22;;;;;;;7.60;4.13;;;;;;;;;;4975535;28;20050;-76
2021/04/23 11:16:07;;;;;;;12.30;4.05;;;;;;;;;;4976625;28;20057;-76
2021/04/23 11:18:33;;;;;;;7.45;3.65;;;;;;;;;;4976312;28;20475;-77
2021/04/23 11:21:18;;;;;;;7.40;4.15;;;;;;;;;;4976966;28;20023;-77
2021/04/23 11:24:02;;;;;;;8.98;4.55;;;;;;;;;;4975243;28;20031;-77
2021/04/23 11:29:51;;;;;;;10.90;4.00;;;;;;;;;;4955921;29;20044;-77
2021/04/23 11:35:25;;;;;;;8.67;3.70;;;;;;;;;;4976243;28;20186;-76
2021/04/23 11:37:51;;;;;;;6.32;3.50;;;;;;;;;;4976945;28;20070;-77
2021/04/23 11:40:17;;;;;;;10.43;3.78;;;;;;;;;;4974789;28;20027;-77
2021/04/23 11:42:45;;;;;;;17.88;4.65;;;;;;;;;;4974900;28;20027;-78
2021/04/23 11:45:14;;;;;;;7.30;3.47;;;;;;;;;;4975337;28;20019;-79
2021/04/23 11:47:49;;;;;;;7.75;3.60;;;;;;;;;;4976154;28;20035;-79
2021/04/23 11:50:14;;;;;;;6.15;3.20;;;;;;;;;;4980765;28;20031;-77
2021/04/23 11:52:41;;;;;;;9.40;3.90;;;;;;;;;;4975547;28;20440;-78
2021/04/23 11:55:11;;;;;;;8.68;4.05;;;;;;;;;;4984578;28;20482;-77
2021/04/23 11:57:36;;;;;;;7.10;4.00;;;;;;;;;;4980439;28;20110;-79
2021/04/23 12:00:06;;;;;;;7.60;4.00;;;;;;;;;;4970155;28;20423;-79
2021/04/23 12:02:55;;;;;;;7.18;3.90;;;;;;;;;;4980725;28;20262;-78
2021/04/23 12:05:23;;;;;;;8.32;4.13;;;;;;;;;;4968270;28;20033;-77
2021/04/23 12:07:48;;;;;;;8.82;3.97;;;;;;;;;;4962692;28;21025;-79
2021/04/23 12:10:14;;;;;;;9.68;3.90;;;;;;;;;;4971228;28;20122;-80
2021/04/23 12:12:41;;;;;;;8.65;3.60;;;;;;;;;;4976310;28;20424;-80
2021/04/23 12:15:07;;;;;;;6.18;3.53;;;;;;;;;;4975432;28;20065;-79
2021/04/23 12:17:40;;;;;;;7.00;3.60;;;;;;;;;;4957778;28;20081;-81
2021/04/23 12:20:13;;;;;;;8.82;3.55;;;;;;;;;;4974413;28;20023;-79
2021/04/23 12:22:39;;;;;;;5.82;3.40;;;;;;;;;;4974594;28;20027;-82
2021/04/23 12:25:37;;;;;;;7.28;3.40;;;;;;;;;;4975119;28;20019;-82
2021/04/23 12:28:35;;;;;;;6.30;3.20;;;;;;;;;;4963451;28;20348;-80
2021/04/23 12:31:02;;;;;;;7.95;3.55;;;;;;;;;;4942072;28;20110;-81
2021/04/23 12:33:37;;;;;;;6.25;3.10;;;;;;;;;;4974582;28;20023;-79
2021/04/23 12:36:10;;;;;;;8.15;3.33;;;;;;;;;;4974780;28;20022;-81
2021/04/23 12:38:39;;;;;;;6.78;3.10;;;;;;;;;;4979255;28;20034;-79
2021/04/23 12:41:17;;;;;;;9.40;3.28;;;;;;;;;;4980612;28;20065;-84
2021/04/23 12:43:42;;;;;;;5.53;2.63;;;;;;;;;;4975449;28;20101;-84
2021/04/23 12:46:18;;;;;;;8.32;3.30;;;;;;;;;;4976006;28;20363;-83
2021/04/23 12:48:43;;;;;;;5.22;2.95;;;;;;;;;;4974626;28;20109;-85
2021/04/23 12:51:09;;;;;;;9.03;3.17;;;;;;;;;;4974718;28;20023;-85
2021/04/23 12:53:34;;;;;;;6.25;2.90;;;;;;;;;;4973742;28;20055;-83
2021/04/23 12:55:59;;;;;;;6.60;2.70;;;;;;;;;;4968170;28;20155;-87
2021/04/23 12:58:24;;;;;;;7.20;3.13;;;;;;;;;;4977372;28;20610;-83
2021/04/23 13:00:50;;;;;;;9.23;3.37;;;;;;;;;;4977371;28;20019;-85
2021/04/23 13:03:21;;;;;;;7.83;3.30;;;;;;;;;;4973890;28;20018;-83
2021/04/23 13:05:47;;;;;;;6.35;3.15;;;;;;;;;;4975241;28;20163;-85
2021/04/23 13:08:19;;;;;;;6.47;3.13;;;;;;;;;;4972077;28;20147;-80
2021/04/23 13:10:46;;;;;;;9.65;2.95;;;;;;;;;;4974702;28;20035;-81
2021/04/23 13:13:13;;;;;;;8.07;2.90;;;;;;;;;;4974728;28;20027;-80
2021/04/23 13:15:43;;;;;;;6.88;3.40;;;;;;;;;;4975009;28;20026;-81
2021/04/23 13:18:22;;;;;;;6.35;2.85;;;;;;;;;;4947744;29;20062;-80
2021/04/23 13:21:01;;;;;;;5.03;3.20;;;;;;;;;;4950608;29;20093;-80
2021/04/23 13:23:42;;;;;;;7.15;3.05;;;;;;;;;;4955513;28;20113;-81
2021/04/23 13:26:09;;;;;;;5.75;2.70;;;;;;;;;;4957297;28;20061;-85
2021/04/23 13:28:41;;;;;;;5.78;2.58;;;;;;;;;;4954303;28;20347;-83
2021/04/23 13:31:07;;;;;;;9.40;2.90;;;;;;;;;;4953447;28;20564;-83
2021/04/23 13:33:33;;;;;;;5.53;2.58;;;;;;;;;;4954417;28;20026;-81
2021/04/23 13:36:04;;;;;;;6.25;2.90;;;;;;;;;;4957724;28;20027;-82
2021/04/23 13:38:31;;;;;;;7.90;2.90;;;;;;;;;;4957247;28;20019;-82
2021/04/23 13:41:09;;;;;;;8.90;2.88;;;;;;;;;;4958443;28;20051;-83
2021/04/23 13:43:37;;;;;;;5.55;2.28;;;;;;;;;;4965072;28;20095;-83
2021/04/23 13:46:04;;;;;;;5.43;2.55;;;;;;;;;;4962808;28;20027;-84
2021/04/23 13:48:30;;;;;;;8.85;2.75;;;;;;;;;;4961491;28;20026;-85
2021/04/23 13:51:01;;;;;;;8.05;3.05;;;;;;;;;;4963153;28;20102;-85
2021/04/23 13:53:34;;;;;;;7.95;3.03;;;;;;;;;;4966649;28;20019;-79
2021/04/23 13:56:09;;;;;;;4.57;2.60;;;;;;;;;;4961403;28;20027;-81
2021/04/23 13:58:54;;;;;;;8.52;2.70;;;;;;;;;;4961730;28;20023;-81
2021/04/23 14:01:37;;;;;;;5.55;2.75;;;;;;;;;;4966520;28;20042;-81
2021/04/23 14:04:04;;;;;;;5.13;3.00;;;;;;;;;;4962727;28;20007;-81
2021/04/23 14:06:31;;;;;;;7.13;2.90;;;;;;;;;;4965717;28;20015;-81
2021/04/23 14:08:57;;;;;;;5.95;2.97;;;;;;;;;;4962201;28;20341;-81
2021/04/23 14:11:24;;;;;;;5.57;3.00;;;;;;;;;;4957585;28;20093;-81
2021/04/23 14:14:10;;;;;;;7.07;3.35;;;;;;;;;;4953955;28;20039;-80
2021/04/23 14:16:36;;;;;;;7.93;3.35;;;;;;;;;;4957884;28;20039;-82
2021/04/23 14:19:01;;;;;;;7.25;2.65;;;;;;;;;;4975236;28;20022;-83
2021/04/23 14:21:31;;;;;;;9.10;3.47;;;;;;;;;;4975458;28;20019;-82
2021/04/23 14:23:57;;;;;;;5.68;2.92;;;;;;;;;;4972344;28;20033;-83
2021/04/23 14:26:23;;;;;;;5.82;3.20;;;;;;;;;;4978952;28;20026;-84
2021/04/23 14:28:48;;;;;;;5.57;3.05;;;;;;;;;;4972968;28;20333;-82
2021/04/23 14:31:14;;;;;;;7.38;3.38;;;;;;;;;;4974865;28;20356;-84
2021/04/23 14:33:42;;;;;;;10.10;3.80;;;;;;;;;;4973950;28;20363;-82
2021/04/23 14:36:08;;;;;;;10.15;3.40;;;;;;;;;;4972813;28;20045;-82
2021/04/23 14:38:34;;;;;;;9.25;3.42;;;;;;;;;;4974012;28;20042;-83
2021/04/23 14:40:59;;;;;;;7.88;3.20;;;;;;;;;;4985314;28;20019;-78